sensor_id;sensor_type;location;lat;lon;timestamp;P1;durP1;ratioP1;P2;durP2;ratioP2
61675;SDS011;47574;52.090;5.244;2023-01-25T00:02:10;30.7;;;26.8;;
61675;SDS011;47574;52.090;5.244;2023-01-25T00:03:46;33.71;;;28.4;;
61675;SDS011;47574;52.090;5.244;2023-01-25T00:05:22;32.21;;;27.6;;
61675;SDS011;47574;52.090;5.244;2023-01-25T00:08:37;31.6;;;27.2;;
61675;SDS011;47574;52.090;5.244;2023-01-25T00:10:14;29.4;;;26.0;;
61675;SDS011;47574;52.090;5.244;2023-01-25T00:11:52;29.5;;;26.3;;
61675;SDS011;47574;52.090;5.244;2023-01-25T00:15:05;31.5;;;27.0;;
61675;SDS011;47574;52.090;5.244;2023-01-25T00:16:42;32.4;;;28.1;;
61675;SDS011;47574;52.090;5.244;2023-01-25T00:18:20;33.21;;;28.6;;
61675;SDS011;47574;52.090;5.244;2023-01-25T00:19:56;33.4;;;27.7;;
61675;SDS011;47574;52.090;5.244;2023-01-25T00:23:09;32.5;;;27.9;;
61675;SDS011;47574;52.090;5.244;2023-01-25T00:24:46;33.6;;;28.7;;
61675;SDS011;47574;52.090;5.244;2023-01-25T00:26:22;30.7;;;27.4;;
61675;SDS011;47574;52.090;5.244;2023-01-25T00:29:34;31.4;;;27.3;;
61675;SDS011;47574;52.090;5.244;2023-01-25T00:31:14;32.71;;;28.4;;
61675;SDS011;47574;52.090;5.244;2023-01-25T00:32:57;33.6;;;28.7;;
61675;SDS011;47574;52.090;5.244;2023-01-25T00:34:42;34.31;;;28.8;;
61675;SDS011;47574;52.090;5.244;2023-01-25T00:38:28;35.5;;;29.7;;
61675;SDS011;47574;52.090;5.244;2023-01-25T00:40:05;34.31;;;30.4;;
61675;SDS011;47574;52.090;5.244;2023-01-25T00:41:45;33.5;;;29.0;;
61675;SDS011;47574;52.090;5.244;2023-01-25T00:43:21;35.5;;;29.9;;
61675;SDS011;47574;52.090;5.244;2023-01-25T00:44:57;37.5;;;31.2;;
61675;SDS011;47574;52.090;5.244;2023-01-25T00:48:10;33.21;;;29.6;;
61675;SDS011;47574;52.090;5.244;2023-01-25T00:49:47;34.81;;;30.9;;
61675;SDS011;47574;52.090;5.244;2023-01-25T00:51:23;35.21;;;30.7;;
61675;SDS011;47574;52.090;5.244;2023-01-25T00:54:36;36.1;;;31.1;;
61675;SDS011;47574;52.090;5.244;2023-01-25T00:56:13;35.1;;;29.4;;
61675;SDS011;47574;52.090;5.244;2023-01-25T00:57:50;37.0;;;30.7;;
61675;SDS011;47574;52.090;5.244;2023-01-25T01:01:03;35.0;;;29.5;;
61675;SDS011;47574;52.090;5.244;2023-01-25T01:02:39;33.8;;;29.0;;
61675;SDS011;47574;52.090;5.244;2023-01-25T01:04:15;35.31;;;29.6;;
61675;SDS011;47574;52.090;5.244;2023-01-25T01:07:35;33.1;;;29.2;;
61675;SDS011;47574;52.090;5.244;2023-01-25T01:09:13;34.0;;;29.3;;
61675;SDS011;47574;52.090;5.244;2023-01-25T01:10:57;34.4;;;29.2;;
61675;SDS011;47574;52.090;5.244;2023-01-25T01:12:34;36.6;;;31.0;;
61675;SDS011;47574;52.090;5.244;2023-01-25T01:15:47;37.0;;;31.9;;
61675;SDS011;47574;52.090;5.244;2023-01-25T01:17:23;39.0;;;31.6;;
61675;SDS011;47574;52.090;5.244;2023-01-25T01:18:59;34.5;;;29.8;;
61675;SDS011;47574;52.090;5.244;2023-01-25T01:20:36;34.9;;;30.2;;
61675;SDS011;47574;52.090;5.244;2023-01-25T01:23:49;36.81;;;30.5;;
61675;SDS011;47574;52.090;5.244;2023-01-25T01:25:25;36.1;;;29.9;;
61675;SDS011;47574;52.090;5.244;2023-01-25T01:27:01;33.4;;;28.9;;
61675;SDS011;47574;52.090;5.244;2023-01-25T01:30:16;36.31;;;29.9;;
61675;SDS011;47574;52.090;5.244;2023-01-25T01:31:53;33.3;;;28.8;;
61675;SDS011;47574;52.090;5.244;2023-01-25T01:33:29;34.21;;;29.7;;
61675;SDS011;47574;52.090;5.244;2023-01-25T01:36:42;35.6;;;29.7;;
61675;SDS011;47574;52.090;5.244;2023-01-25T01:38:19;35.6;;;29.7;;
61675;SDS011;47574;52.090;5.244;2023-01-25T01:39:56;36.0;;;30.5;;
61675;SDS011;47574;52.090;5.244;2023-01-25T01:41:33;38.31;;;31.5;;
61675;SDS011;47574;52.090;5.244;2023-01-25T01:44:53;36.5;;;31.3;;
61675;SDS011;47574;52.090;5.244;2023-01-25T01:46:30;34.31;;;29.6;;
61675;SDS011;47574;52.090;5.244;2023-01-25T01:48:10;35.5;;;30.1;;
61675;SDS011;47574;52.090;5.244;2023-01-25T01:49:52;36.6;;;30.6;;
61675;SDS011;47574;52.090;5.244;2023-01-25T01:53:20;37.6;;;30.5;;
61675;SDS011;47574;52.090;5.244;2023-01-25T01:55:00;33.8;;;29.0;;
61675;SDS011;47574;52.090;5.244;2023-01-25T01:56:42;36.81;;;31.4;;
61675;SDS011;47574;52.090;5.244;2023-01-25T01:58:26;36.21;;;30.8;;
61675;SDS011;47574;52.090;5.244;2023-01-25T02:01:49;37.6;;;30.9;;
61675;SDS011;47574;52.090;5.244;2023-01-25T02:03:26;36.9;;;31.2;;
61675;SDS011;47574;52.090;5.244;2023-01-25T02:05:05;37.21;;;30.9;;
61675;SDS011;47574;52.090;5.244;2023-01-25T02:06:47;36.5;;;31.1;;
61675;SDS011;47574;52.090;5.244;2023-01-25T02:10:08;36.9;;;31.3;;
61675;SDS011;47574;52.090;5.244;2023-01-25T02:11:48;36.71;;;31.3;;
61675;SDS011;47574;52.090;5.244;2023-01-25T02:13:27;34.1;;;29.1;;
61675;SDS011;47574;52.090;5.244;2023-01-25T02:15:05;35.4;;;30.1;;
61675;SDS011;47574;52.090;5.244;2023-01-25T02:18:19;36.1;;;30.8;;
61675;SDS011;47574;52.090;5.244;2023-01-25T02:19:57;35.6;;;30.3;;
61675;SDS011;47574;52.090;5.244;2023-01-25T02:21:38;38.21;;;30.9;;
61675;SDS011;47574;52.090;5.244;2023-01-25T02:23:21;36.31;;;30.7;;
61675;SDS011;47574;52.090;5.244;2023-01-25T02:26:43;36.31;;;30.7;;
61675;SDS011;47574;52.090;5.244;2023-01-25T02:28:23;35.6;;;30.7;;
61675;SDS011;47574;52.090;5.244;2023-01-25T02:30:04;37.31;;;30.1;;
61675;SDS011;47574;52.090;5.244;2023-01-25T02:31:42;37.4;;;30.8;;
61675;SDS011;47574;52.090;5.244;2023-01-25T02:34:58;37.31;;;31.2;;
61675;SDS011;47574;52.090;5.244;2023-01-25T02:36:34;37.31;;;31.2;;
61675;SDS011;47574;52.090;5.244;2023-01-25T02:38:12;34.9;;;30.5;;
61675;SDS011;47574;52.090;5.244;2023-01-25T02:41:31;38.1;;;31.0;;
61675;SDS011;47574;52.090;5.244;2023-01-25T02:43:10;34.71;;;29.7;;
61675;SDS011;47574;52.090;5.244;2023-01-25T02:44:46;38.71;;;31.5;;
61675;SDS011;47574;52.090;5.244;2023-01-25T02:46:27;38.6;;;32.21;;
61675;SDS011;47574;52.090;5.244;2023-01-25T02:49:41;37.71;;;30.7;;
61675;SDS011;47574;52.090;5.244;2023-01-25T02:51:18;37.5;;;31.6;;
61675;SDS011;47574;52.090;5.244;2023-01-25T02:52:54;36.31;;;30.3;;
61675;SDS011;47574;52.090;5.244;2023-01-25T02:56:08;38.1;;;32.4;;
61675;SDS011;47574;52.090;5.244;2023-01-25T02:57:44;36.1;;;30.2;;
61675;SDS011;47574;52.090;5.244;2023-01-25T02:59:20;35.4;;;30.8;;
61675;SDS011;47574;52.090;5.244;2023-01-25T03:00:57;37.71;;;32.21;;
61675;SDS011;47574;52.090;5.244;2023-01-25T03:04:11;39.71;;;32.71;;
61675;SDS011;47574;52.090;5.244;2023-01-25T03:05:48;40.9;;;33.21;;
61675;SDS011;47574;52.090;5.244;2023-01-25T03:07:24;40.71;;;33.9;;
61675;SDS011;47574;52.090;5.244;2023-01-25T03:10:38;40.71;;;33.4;;
61675;SDS011;47574;52.090;5.244;2023-01-25T03:12:14;41.7;;;33.3;;
61675;SDS011;47574;52.090;5.244;2023-01-25T03:13:50;40.31;;;33.0;;
61675;SDS011;47574;52.090;5.244;2023-01-25T03:17:03;40.31;;;33.71;;
61675;SDS011;47574;52.090;5.244;2023-01-25T03:18:40;40.9;;;32.3;;
61675;SDS011;47574;52.090;5.244;2023-01-25T03:20:17;40.1;;;32.5;;
61675;SDS011;47574;52.090;5.244;2023-01-25T03:21:53;42.0;;;34.6;;
61675;SDS011;47574;52.090;5.244;2023-01-25T03:25:06;42.0;;;33.71;;
61675;SDS011;47574;52.090;5.244;2023-01-25T03:27:17;45.8;;;35.31;;
61675;SDS011;47574;52.090;5.244;2023-01-25T03:28:53;41.5;;;34.31;;
61675;SDS011;47574;52.090;5.244;2023-01-25T03:30:30;44.6;;;35.21;;
61675;SDS011;47574;52.090;5.244;2023-01-25T03:33:44;45.1;;;36.0;;
61675;SDS011;47574;52.090;5.244;2023-01-25T03:35:20;44.0;;;36.0;;
61675;SDS011;47574;52.090;5.244;2023-01-25T03:36:56;48.1;;;36.81;;
61675;SDS011;47574;52.090;5.244;2023-01-25T03:40:11;44.3;;;36.0;;
61675;SDS011;47574;52.090;5.244;2023-01-25T03:41:47;42.0;;;34.81;;
61675;SDS011;47574;52.090;5.244;2023-01-25T03:43:23;45.3;;;36.4;;
61675;SDS011;47574;52.090;5.244;2023-01-25T03:45:00;45.2;;;36.4;;
61675;SDS011;47574;52.090;5.244;2023-01-25T03:48:12;44.2;;;36.5;;
61675;SDS011;47574;52.090;5.244;2023-01-25T03:49:48;44.4;;;36.5;;
61675;SDS011;47574;52.090;5.244;2023-01-25T03:51:25;46.3;;;36.1;;
61675;SDS011;47574;52.090;5.244;2023-01-25T03:54:42;47.3;;;36.71;;
61675;SDS011;47574;52.090;5.244;2023-01-25T03:56:19;44.5;;;34.6;;
61675;SDS011;47574;52.090;5.244;2023-01-25T03:57:55;46.9;;;37.81;;
61675;SDS011;47574;52.090;5.244;2023-01-25T03:59:31;46.0;;;37.71;;
61675;SDS011;47574;52.090;5.244;2023-01-25T04:02:44;45.4;;;37.1;;
61675;SDS011;47574;52.090;5.244;2023-01-25T04:04:20;46.8;;;37.6;;
61675;SDS011;47574;52.090;5.244;2023-01-25T04:05:56;46.5;;;37.4;;
61675;SDS011;47574;52.090;5.244;2023-01-25T04:09:09;44.5;;;36.4;;
61675;SDS011;47574;52.090;5.244;2023-01-25T04:10:48;43.7;;;35.5;;
61675;SDS011;47574;52.090;5.244;2023-01-25T04:12:26;44.9;;;35.9;;
61675;SDS011;47574;52.090;5.244;2023-01-25T04:15:38;44.4;;;36.21;;
61675;SDS011;47574;52.090;5.244;2023-01-25T04:17:14;46.8;;;36.21;;
61675;SDS011;47574;52.090;5.244;2023-01-25T04:18:50;45.2;;;36.6;;
61675;SDS011;47574;52.090;5.244;2023-01-25T04:20:26;47.6;;;39.1;;
61675;SDS011;47574;52.090;5.244;2023-01-25T04:23:41;42.4;;;35.31;;
61675;SDS011;47574;52.090;5.244;2023-01-25T04:25:17;45.4;;;36.31;;
61675;SDS011;47574;52.090;5.244;2023-01-25T04:26:53;49.8;;;36.5;;
61675;SDS011;47574;52.090;5.244;2023-01-25T04:30:08;47.3;;;38.6;;
61675;SDS011;47574;52.090;5.244;2023-01-25T04:31:45;45.4;;;37.31;;
61675;SDS011;47574;52.090;5.244;2023-01-25T04:33:21;46.8;;;37.71;;
61675;SDS011;47574;52.090;5.244;2023-01-25T04:36:34;45.8;;;36.71;;
61675;SDS011;47574;52.090;5.244;2023-01-25T04:38:11;46.7;;;37.81;;
61675;SDS011;47574;52.090;5.244;2023-01-25T04:39:47;45.3;;;36.6;;
61675;SDS011;47574;52.090;5.244;2023-01-25T04:41:28;47.1;;;37.31;;
61675;SDS011;47574;52.090;5.244;2023-01-25T04:44:41;45.9;;;36.71;;
61675;SDS011;47574;52.090;5.244;2023-01-25T04:46:17;43.9;;;35.21;;
61675;SDS011;47574;52.090;5.244;2023-01-25T04:47:54;44.6;;;36.6;;
61675;SDS011;47574;52.090;5.244;2023-01-25T04:51:09;44.5;;;36.1;;
61675;SDS011;47574;52.090;5.244;2023-01-25T04:52:45;46.3;;;37.1;;
61675;SDS011;47574;52.090;5.244;2023-01-25T04:54:21;46.6;;;37.1;;
61675;SDS011;47574;52.090;5.244;2023-01-25T04:57:33;47.6;;;36.71;;
61675;SDS011;47574;52.090;5.244;2023-01-25T04:59:09;44.6;;;36.21;;
61675;SDS011;47574;52.090;5.244;2023-01-25T05:00:46;48.3;;;36.9;;
61675;SDS011;47574;52.090;5.244;2023-01-25T05:02:22;44.1;;;36.21;;
61675;SDS011;47574;52.090;5.244;2023-01-25T05:05:34;44.0;;;35.9;;
61675;SDS011;47574;52.090;5.244;2023-01-25T05:07:10;45.9;;;36.81;;
61675;SDS011;47574;52.090;5.244;2023-01-25T05:08:46;45.1;;;37.1;;
61675;SDS011;47574;52.090;5.244;2023-01-25T05:11:59;47.0;;;37.0;;
61675;SDS011;47574;52.090;5.244;2023-01-25T05:13:35;45.5;;;37.31;;
61675;SDS011;47574;52.090;5.244;2023-01-25T05:15:11;46.2;;;37.4;;
61675;SDS011;47574;52.090;5.244;2023-01-25T05:18:24;45.7;;;37.0;;
61675;SDS011;47574;52.090;5.244;2023-01-25T05:20:01;45.7;;;37.21;;
61675;SDS011;47574;52.090;5.244;2023-01-25T05:22:11;44.0;;;37.0;;
61675;SDS011;47574;52.090;5.244;2023-01-25T05:23:49;47.4;;;37.9;;
61675;SDS011;47574;52.090;5.244;2023-01-25T05:29:03;48.3;;;38.5;;
61675;SDS011;47574;52.090;5.244;2023-01-25T05:30:39;46.7;;;38.1;;
61675;SDS011;47574;52.090;5.244;2023-01-25T05:32:16;46.7;;;38.1;;
61675;SDS011;47574;52.090;5.244;2023-01-25T05:33:55;47.7;;;38.4;;
61675;SDS011;47574;52.090;5.244;2023-01-25T05:37:08;47.8;;;39.0;;
61675;SDS011;47574;52.090;5.244;2023-01-25T05:38:46;49.1;;;38.31;;
61675;SDS011;47574;52.090;5.244;2023-01-25T05:40:23;47.7;;;39.21;;
61675;SDS011;47574;52.090;5.244;2023-01-25T05:43:35;45.6;;;36.9;;
61675;SDS011;47574;52.090;5.244;2023-01-25T05:45:11;45.8;;;36.81;;
61675;SDS011;47574;52.090;5.244;2023-01-25T05:46:47;45.9;;;37.5;;
61675;SDS011;47574;52.090;5.244;2023-01-25T05:48:24;48.6;;;38.81;;
61675;SDS011;47574;52.090;5.244;2023-01-25T05:51:38;47.9;;;38.0;;
61675;SDS011;47574;52.090;5.244;2023-01-25T05:53:16;47.7;;;37.4;;
61675;SDS011;47574;52.090;5.244;2023-01-25T05:54:52;46.7;;;37.71;;
61675;SDS011;47574;52.090;5.244;2023-01-25T05:58:05;49.5;;;39.6;;
61675;SDS011;47574;52.090;5.244;2023-01-25T05:59:41;49.9;;;40.31;;
61675;SDS011;47574;52.090;5.244;2023-01-25T06:01:18;47.4;;;38.5;;
61675;SDS011;47574;52.090;5.244;2023-01-25T06:04:35;51.2;;;41.4;;
61675;SDS011;47574;52.090;5.244;2023-01-25T06:06:11;48.5;;;39.81;;
61675;SDS011;47574;52.090;5.244;2023-01-25T06:07:48;48.9;;;38.81;;
61675;SDS011;47574;52.090;5.244;2023-01-25T06:09:26;48.2;;;38.21;;
61675;SDS011;47574;52.090;5.244;2023-01-25T06:12:42;51.0;;;38.71;;
61675;SDS011;47574;52.090;5.244;2023-01-25T06:14:18;48.7;;;39.5;;
61675;SDS011;47574;52.090;5.244;2023-01-25T06:15:54;51.9;;;41.7;;
61675;SDS011;47574;52.090;5.244;2023-01-25T06:19:10;52.4;;;39.71;;
61675;SDS011;47574;52.090;5.244;2023-01-25T06:20:47;52.1;;;40.6;;
61675;SDS011;47574;52.090;5.244;2023-01-25T06:22:25;52.3;;;41.4;;
61675;SDS011;47574;52.090;5.244;2023-01-25T06:24:01;50.9;;;41.2;;
61675;SDS011;47574;52.090;5.244;2023-01-25T06:27:13;52.3;;;41.2;;
61675;SDS011;47574;52.090;5.244;2023-01-25T06:28:49;52.6;;;41.6;;
61675;SDS011;47574;52.090;5.244;2023-01-25T06:30:25;52.7;;;41.5;;
61675;SDS011;47574;52.090;5.244;2023-01-25T06:33:38;54.4;;;42.0;;
61675;SDS011;47574;52.090;5.244;2023-01-25T06:35:16;54.4;;;42.3;;
61675;SDS011;47574;52.090;5.244;2023-01-25T06:36:52;53.7;;;42.3;;
61675;SDS011;47574;52.090;5.244;2023-01-25T06:40:07;55.4;;;43.5;;
61675;SDS011;47574;52.090;5.244;2023-01-25T06:41:46;56.4;;;42.8;;
61675;SDS011;47574;52.090;5.244;2023-01-25T06:43:22;52.7;;;42.0;;
61675;SDS011;47574;52.090;5.244;2023-01-25T06:44:58;56.9;;;43.7;;
61675;SDS011;47574;52.090;5.244;2023-01-25T06:48:10;55.0;;;43.7;;
61675;SDS011;47574;52.090;5.244;2023-01-25T06:49:46;55.7;;;43.7;;
61675;SDS011;47574;52.090;5.244;2023-01-25T06:51:22;56.6;;;44.9;;
61675;SDS011;47574;52.090;5.244;2023-01-25T06:54:35;55.5;;;43.5;;
61675;SDS011;47574;52.090;5.244;2023-01-25T06:56:11;55.4;;;43.2;;
61675;SDS011;47574;52.090;5.244;2023-01-25T06:57:50;57.4;;;44.3;;
61675;SDS011;47574;52.090;5.244;2023-01-25T06:59:26;57.0;;;43.1;;
61675;SDS011;47574;52.090;5.244;2023-01-25T07:02:42;55.6;;;43.7;;
61675;SDS011;47574;52.090;5.244;2023-01-25T07:04:18;56.8;;;45.0;;
61675;SDS011;47574;52.090;5.244;2023-01-25T07:05:57;55.8;;;44.7;;
61675;SDS011;47574;52.090;5.244;2023-01-25T07:09:12;60.1;;;45.9;;
61675;SDS011;47574;52.090;5.244;2023-01-25T07:10:52;58.9;;;45.1;;
61675;SDS011;47574;52.090;5.244;2023-01-25T07:12:29;58.3;;;44.4;;
61675;SDS011;47574;52.090;5.244;2023-01-25T07:14:06;59.9;;;46.1;;
61675;SDS011;47574;52.090;5.244;2023-01-25T07:17:18;58.8;;;46.0;;
61675;SDS011;47574;52.090;5.244;2023-01-25T07:18:54;58.4;;;45.5;;
61675;SDS011;47574;52.090;5.244;2023-01-25T07:20:30;56.5;;;43.9;;
61675;SDS011;47574;52.090;5.244;2023-01-25T07:23:43;56.4;;;45.3;;
61675;SDS011;47574;52.090;5.244;2023-01-25T07:25:19;59.4;;;46.0;;
61675;SDS011;47574;52.090;5.244;2023-01-25T07:26:55;63.0;;;46.4;;
61675;SDS011;47574;52.090;5.244;2023-01-25T07:30:09;62.9;;;46.9;;
61675;SDS011;47574;52.090;5.244;2023-01-25T07:31:45;60.6;;;46.5;;
61675;SDS011;47574;52.090;5.244;2023-01-25T07:33:22;62.2;;;46.6;;
61675;SDS011;47574;52.090;5.244;2023-01-25T07:36:35;59.4;;;46.0;;
61675;SDS011;47574;52.090;5.244;2023-01-25T07:38:12;60.3;;;46.8;;
61675;SDS011;47574;52.090;5.244;2023-01-25T07:39:49;63.2;;;47.8;;
61675;SDS011;47574;52.090;5.244;2023-01-25T07:41:25;61.7;;;47.7;;
61675;SDS011;47574;52.090;5.244;2023-01-25T07:44:38;62.4;;;47.3;;
61675;SDS011;47574;52.090;5.244;2023-01-25T07:46:16;61.9;;;47.5;;
61675;SDS011;47574;52.090;5.244;2023-01-25T07:47:53;63.5;;;47.2;;
61675;SDS011;47574;52.090;5.244;2023-01-25T07:51:21;64.91;;;49.6;;
61675;SDS011;47574;52.090;5.244;2023-01-25T07:52:58;61.1;;;47.9;;
61675;SDS011;47574;52.090;5.244;2023-01-25T07:54:34;61.8;;;47.5;;
61675;SDS011;47574;52.090;5.244;2023-01-25T07:56:11;64.7;;;47.5;;
61675;SDS011;47574;52.090;5.244;2023-01-25T07:59:23;63.9;;;48.0;;
61675;SDS011;47574;52.090;5.244;2023-01-25T08:01:07;63.0;;;47.4;;
61675;SDS011;47574;52.090;5.244;2023-01-25T08:02:48;66.0;;;48.6;;
61675;SDS011;47574;52.090;5.244;2023-01-25T08:04:25;62.1;;;47.2;;
61675;SDS011;47574;52.090;5.244;2023-01-25T08:07:41;62.7;;;47.0;;
61675;SDS011;47574;52.090;5.244;2023-01-25T08:09:18;62.8;;;47.0;;
61675;SDS011;47574;52.090;5.244;2023-01-25T08:10:54;61.9;;;47.5;;
61675;SDS011;47574;52.090;5.244;2023-01-25T08:14:10;64.8;;;48.0;;
61675;SDS011;47574;52.090;5.244;2023-01-25T08:15:51;66.7;;;48.6;;
61675;SDS011;47574;52.090;5.244;2023-01-25T08:17:31;63.3;;;48.4;;
61675;SDS011;47574;52.090;5.244;2023-01-25T08:19:09;66.41;;;49.7;;
61675;SDS011;47574;52.090;5.244;2023-01-25T08:22:22;63.0;;;49.2;;
61675;SDS011;47574;52.090;5.244;2023-01-25T08:24:00;65.41;;;49.4;;
61675;SDS011;47574;52.090;5.244;2023-01-25T08:25:39;66.6;;;49.3;;
61675;SDS011;47574;52.090;5.244;2023-01-25T08:28:52;63.2;;;47.9;;
61675;SDS011;47574;52.090;5.244;2023-01-25T08:30:29;67.5;;;48.5;;
61675;SDS011;47574;52.090;5.244;2023-01-25T08:32:07;68.61;;;49.5;;
61675;SDS011;47574;52.090;5.244;2023-01-25T08:33:45;69.8;;;50.1;;
61675;SDS011;47574;52.090;5.244;2023-01-25T08:36:58;67.1;;;50.3;;
61675;SDS011;47574;52.090;5.244;2023-01-25T08:38:35;70.61;;;52.1;;
61675;SDS011;47574;52.090;5.244;2023-01-25T08:40:13;71.7;;;50.7;;
61675;SDS011;47574;52.090;5.244;2023-01-25T08:43:30;66.5;;;49.6;;
61675;SDS011;47574;52.090;5.244;2023-01-25T08:45:06;69.11;;;51.1;;
61675;SDS011;47574;52.090;5.244;2023-01-25T08:46:44;68.7;;;50.2;;
61675;SDS011;47574;52.090;5.244;2023-01-25T08:48:21;71.8;;;51.5;;
61675;SDS011;47574;52.090;5.244;2023-01-25T08:51:33;70.91;;;52.0;;
61675;SDS011;47574;52.090;5.244;2023-01-25T08:53:09;67.3;;;50.3;;
61675;SDS011;47574;52.090;5.244;2023-01-25T08:54:46;70.2;;;51.4;;
61675;SDS011;47574;52.090;5.244;2023-01-25T08:57:59;70.2;;;51.6;;
61675;SDS011;47574;52.090;5.244;2023-01-25T08:59:35;70.41;;;50.8;;
61675;SDS011;47574;52.090;5.244;2023-01-25T09:01:12;70.91;;;51.6;;
61675;SDS011;47574;52.090;5.244;2023-01-25T09:04:27;70.5;;;50.2;;
61675;SDS011;47574;52.090;5.244;2023-01-25T09:06:04;72.2;;;51.4;;
61675;SDS011;47574;52.090;5.244;2023-01-25T09:07:41;72.5;;;51.4;;
61675;SDS011;47574;52.090;5.244;2023-01-25T09:09:17;74.11;;;52.9;;
61675;SDS011;47574;52.090;5.244;2023-01-25T09:12:30;72.8;;;52.4;;
61675;SDS011;47574;52.090;5.244;2023-01-25T09:14:06;74.3;;;51.9;;
61675;SDS011;47574;52.090;5.244;2023-01-25T09:15:43;72.11;;;52.0;;
61675;SDS011;47574;52.090;5.244;2023-01-25T09:18:57;72.5;;;52.7;;
61675;SDS011;47574;52.090;5.244;2023-01-25T09:20:36;71.0;;;50.8;;
61675;SDS011;47574;52.090;5.244;2023-01-25T09:22:13;74.8;;;52.0;;
61675;SDS011;47574;52.090;5.244;2023-01-25T09:23:50;74.11;;;51.6;;
61675;SDS011;47574;52.090;5.244;2023-01-25T09:27:05;76.7;;;52.0;;
61675;SDS011;47574;52.090;5.244;2023-01-25T09:28:41;72.0;;;51.0;;
61675;SDS011;47574;52.090;5.244;2023-01-25T09:30:21;73.41;;;50.7;;
61675;SDS011;47574;52.090;5.244;2023-01-25T09:33:35;71.7;;;50.4;;
61675;SDS011;47574;52.090;5.244;2023-01-25T09:35:12;69.5;;;50.2;;
61675;SDS011;47574;52.090;5.244;2023-01-25T09:36:49;71.2;;;50.2;;
61675;SDS011;47574;52.090;5.244;2023-01-25T09:40:03;69.61;;;50.0;;
61675;SDS011;47574;52.090;5.244;2023-01-25T09:42:01;71.41;;;50.1;;
61675;SDS011;47574;52.090;5.244;2023-01-25T09:44:46;71.2;;;50.4;;
61675;SDS011;47574;52.090;5.244;2023-01-25T09:47:04;72.5;;;50.0;;
61675;SDS011;47574;52.090;5.244;2023-01-25T09:50:39;73.3;;;50.3;;
61675;SDS011;47574;52.090;5.244;2023-01-25T09:52:41;75.41;;;50.6;;
61675;SDS011;47574;52.090;5.244;2023-01-25T09:54:42;71.61;;;49.6;;
61675;SDS011;47574;52.090;5.244;2023-01-25T09:56:22;70.91;;;50.3;;
61675;SDS011;47574;52.090;5.244;2023-01-25T09:58:03;71.11;;;50.4;;
61675;SDS011;47574;52.090;5.244;2023-01-25T09:59:44;69.41;;;49.5;;
61675;SDS011;47574;52.090;5.244;2023-01-25T10:03:10;72.11;;;49.9;;
61675;SDS011;47574;52.090;5.244;2023-01-25T10:04:55;75.0;;;50.8;;
61675;SDS011;47574;52.090;5.244;2023-01-25T10:06:38;74.41;;;51.2;;
61675;SDS011;47574;52.090;5.244;2023-01-25T10:08:20;75.5;;;51.6;;
61675;SDS011;47574;52.090;5.244;2023-01-25T10:10:05;75.8;;;51.9;;
61675;SDS011;47574;52.090;5.244;2023-01-25T10:13:23;73.5;;;50.2;;
61675;SDS011;47574;52.090;5.244;2023-01-25T10:15:00;71.5;;;50.7;;
61675;SDS011;47574;52.090;5.244;2023-01-25T10:16:51;73.11;;;49.8;;
61675;SDS011;47574;52.090;5.244;2023-01-25T10:18:38;69.91;;;48.2;;
61675;SDS011;47574;52.090;5.244;2023-01-25T10:20:31;73.3;;;50.1;;
61675;SDS011;47574;52.090;5.244;2023-01-25T10:27:33;74.3;;;50.9;;
61675;SDS011;47574;52.090;5.244;2023-01-25T10:29:19;73.3;;;50.2;;
61675;SDS011;47574;52.090;5.244;2023-01-25T10:30:59;72.91;;;49.2;;
61675;SDS011;47574;52.090;5.244;2023-01-25T10:34:17;73.61;;;48.8;;
61675;SDS011;47574;52.090;5.244;2023-01-25T10:35:57;73.91;;;49.3;;
61675;SDS011;47574;52.090;5.244;2023-01-25T10:37:37;77.11;;;50.3;;
61675;SDS011;47574;52.090;5.244;2023-01-25T10:39:14;77.7;;;52.0;;
61675;SDS011;47574;52.090;5.244;2023-01-25T10:42:47;76.7;;;51.3;;
61675;SDS011;47574;52.090;5.244;2023-01-25T10:44:37;74.7;;;50.2;;
61675;SDS011;47574;52.090;5.244;2023-01-25T10:46:16;73.91;;;50.6;;
61675;SDS011;47574;52.090;5.244;2023-01-25T10:47:57;71.11;;;49.6;;
61675;SDS011;47574;52.090;5.244;2023-01-25T10:49:39;75.7;;;51.1;;
61675;SDS011;47574;52.090;5.244;2023-01-25T10:53:18;74.8;;;50.4;;
61675;SDS011;47574;52.090;5.244;2023-01-25T10:55:06;71.41;;;48.8;;
61675;SDS011;47574;52.090;5.244;2023-01-25T10:56:50;71.0;;;47.5;;
61675;SDS011;47574;52.090;5.244;2023-01-25T10:58:28;69.7;;;46.7;;
61675;SDS011;47574;52.090;5.244;2023-01-25T11:00:18;73.7;;;50.4;;
61675;SDS011;47574;52.090;5.244;2023-01-25T11:04:23;74.5;;;50.1;;
61675;SDS011;47574;52.090;5.244;2023-01-25T11:07:44;75.3;;;50.1;;
61675;SDS011;47574;52.090;5.244;2023-01-25T11:09:30;75.2;;;51.0;;
61675;SDS011;47574;52.090;5.244;2023-01-25T11:11:23;76.11;;;50.4;;
61675;SDS011;47574;52.090;5.244;2023-01-25T11:13:18;77.61;;;51.3;;
61675;SDS011;47574;52.090;5.244;2023-01-25T11:15:21;79.91;;;51.8;;
61675;SDS011;47574;52.090;5.244;2023-01-25T11:16:59;74.91;;;49.9;;
61675;SDS011;47574;52.090;5.244;2023-01-25T11:20:25;76.61;;;50.3;;
61675;SDS011;47574;52.090;5.244;2023-01-25T11:22:03;78.41;;;49.8;;
61675;SDS011;47574;52.090;5.244;2023-01-25T11:23:58;75.3;;;50.2;;
61675;SDS011;47574;52.090;5.244;2023-01-25T11:26:10;77.2;;;51.5;;
61675;SDS011;47574;52.090;5.244;2023-01-25T11:27:50;71.2;;;48.5;;
61675;SDS011;47574;52.090;5.244;2023-01-25T11:29:27;72.91;;;49.7;;
61675;SDS011;47574;52.090;5.244;2023-01-25T11:32:46;72.8;;;49.6;;
61675;SDS011;47574;52.090;5.244;2023-01-25T11:34:23;75.0;;;50.5;;
61675;SDS011;47574;52.090;5.244;2023-01-25T11:36:08;74.91;;;51.4;;
61675;SDS011;47574;52.090;5.244;2023-01-25T11:38:01;70.41;;;47.8;;
61675;SDS011;47574;52.090;5.244;2023-01-25T11:39:49;70.3;;;46.4;;
61675;SDS011;47574;52.090;5.244;2023-01-25T11:43:34;72.8;;;49.6;;
61675;SDS011;47574;52.090;5.244;2023-01-25T11:46:33;75.3;;;50.8;;
61675;SDS011;47574;52.090;5.244;2023-01-25T11:48:23;70.91;;;47.5;;
61675;SDS011;47574;52.090;5.244;2023-01-25T11:50:19;73.7;;;48.4;;
61675;SDS011;47574;52.090;5.244;2023-01-25T11:54:00;72.7;;;47.8;;
61675;SDS011;47574;52.090;5.244;2023-01-25T11:56:19;73.0;;;48.4;;
61675;SDS011;47574;52.090;5.244;2023-01-25T11:58:20;74.0;;;48.8;;
61675;SDS011;47574;52.090;5.244;2023-01-25T12:00:17;73.0;;;48.8;;
61675;SDS011;47574;52.090;5.244;2023-01-25T12:02:14;75.3;;;47.7;;
61675;SDS011;47574;52.090;5.244;2023-01-25T12:04:16;69.11;;;47.9;;
61675;SDS011;47574;52.090;5.244;2023-01-25T12:06:24;73.7;;;47.5;;
61675;SDS011;47574;52.090;5.244;2023-01-25T12:08:14;73.61;;;49.0;;
61675;SDS011;47574;52.090;5.244;2023-01-25T12:10:13;75.41;;;49.0;;
61675;SDS011;47574;52.090;5.244;2023-01-25T12:12:01;69.61;;;48.0;;
61675;SDS011;47574;52.090;5.244;2023-01-25T12:13:49;81.2;;;52.3;;
61675;SDS011;47574;52.090;5.244;2023-01-25T12:15:39;74.11;;;48.9;;
61675;SDS011;47574;52.090;5.244;2023-01-25T12:18:06;74.11;;;49.6;;
61675;SDS011;47574;52.090;5.244;2023-01-25T12:20:00;80.0;;;50.9;;
61675;SDS011;47574;52.090;5.244;2023-01-25T12:22:22;78.11;;;49.8;;
61675;SDS011;47574;52.090;5.244;2023-01-25T12:24:20;75.11;;;49.6;;
61675;SDS011;47574;52.090;5.244;2023-01-25T12:26:15;75.3;;;48.6;;
61675;SDS011;47574;52.090;5.244;2023-01-25T12:28:05;77.0;;;48.2;;
61675;SDS011;47574;52.090;5.244;2023-01-25T12:31:34;75.2;;;49.4;;
61675;SDS011;47574;52.090;5.244;2023-01-25T12:33:21;75.8;;;49.1;;
61675;SDS011;47574;52.090;5.244;2023-01-25T12:35:11;79.3;;;52.0;;
61675;SDS011;47574;52.090;5.244;2023-01-25T12:36:59;78.0;;;50.7;;
61675;SDS011;47574;52.090;5.244;2023-01-25T12:38:48;83.0;;;50.8;;
61675;SDS011;47574;52.090;5.244;2023-01-25T12:40:33;82.4;;;52.4;;
61675;SDS011;47574;52.090;5.244;2023-01-25T12:44:13;80.5;;;52.2;;
61675;SDS011;47574;52.090;5.244;2023-01-25T12:45:54;78.2;;;50.0;;